Registration

All data are given in time UTC except for the places where it is expressly stated to the contrary, The data provided on this website are informative!!!


Actual Weather
 
General weather forecast

High air temperature is forecasted with values from 25°C to 28°C.
kujlubellodzmalmazopopodkpodlpomslaswiwarHEAT (st.1)Increase of fire risk.Heatstress.High air temperature is forecasted with values from 28°C to 32°C.
lubudolwielzachHEAT (st.2)Substantial load on the body.Serious fire hazard, especially forest areas, grassy and peat bog polygons.
Weather - Poland
29°C Szczecin 25°C Suwałki 27°C Warszawa 27°C Poznan
23°C Opole 25°C Kraków 25°C Rzeszów
More cities in Poland

Weather - Europe
29°C Berlin 24°C Paryz 24°C Bruksela 20°C Oslo
24°C Praga 24°C Zagrzeb
More cities in Europe

METAR EPBC 151100Z 10008KT CAVOK 28/06 Q1017=
METAR EPCE 151100Z 07008KT 360V110 9999 FEW073 28/10 Q1017 RMK 281 032 1/1=
METAR EPDA 151100Z 01005KT 310V060 9999 FEW050 28/11 Q1016 RMK 275 036 1/1=
METAR EPDE 151100Z 07010KT 9999 FEW050 FEW100 SCT200 25/09 Q1017 RMK 246 037 4/1=
METAR EPIR 151100Z AUTO 11008KT 27/12 Q1016 RMK 274 037 ///=
METAR EPKS 151100Z 15010KT 080V180 9999 SCT040 27/16 Q1016 RMK 270 051 3/3=
METAR EPLK 151100Z 13009KT 030V120 9999 FEW050 SCT100 26/10 Q1016 RMK 262 037 3/1=
METAR EPLY 151100Z 11006KT 9999 NSC 27/13 Q1016 RMK 268 042 3/2=
METAR EPMB 151100Z 09009KT 040V170 9999 FEW050 29/11 Q1016 RMK 292 032 1/1=
METAR EPMI 151100Z 10010KT 9999 FEW060 28/09 Q1016 RMK 281 031 2/2=
METAR EPMM 151100Z 13009KT 100V200 9999 NSC 26/07 Q1017 RMK 258 030 0/0=
METAR EPOK 151100Z 08008KT CAVOK 25/13 Q1017 RMK 246 050 0/0=
METAR EPPR 151100Z 05006KT 9999 NSC 29/11 Q1016 RMK 291 033 0/0=
METAR EPPW 151100Z 13008KT 9999 FEW048 SCT080 27/13 Q1016 RMK 267 042 4/2=
METAR EPSN 151100Z AUTO 12008KT 050V180 9999 NCD 29/08 Q1016 RMK 288 027 ///=
METAR EPTM 151100Z 11012KT 9999 NSC 25/10 Q1017 RMK 253 037 3/1=


 

Copyright©2007 HS-PAF All rights reserved.